KBJJ

Wayne County Airport

Wooster, Ohio, USA
METAR KBJJ 190556Z AUTO 22012KT 10SM CLR M06/M12 A3005 RMK AO2 SLP194 T10561117 11050 21056 58011
Observed Flight Rules
Jan-19 @ 05:56 UTC (an hour ago) Visual Flight Rules
Wind Visibility Clouds
220° at 12 knots 10 miles
  • Clear skies
Temperatures Readings
Current -6°C / 21°F
Dewpoint -12°C / 10°F
Humidity 63%
Altimeter 30.05" Hg
Pressure 1019.4 hPa
Elevation 343
METAR KBJJ 190556Z AUTO 22012KT 10SM CLR M06/M12 A3005 RMK AO2 SLP194 T10561117 11050 21056 58011
Observed Flight Rules
Jan-19 @ 05:56 UTC
(an hour ago)
VFR
Wind Visibility
220° at 12 knots 10 miles
Clouds
  • Clear skies
Temperature Dewpoint
-6°C / 21°F -12°C / 10°F
Humidity Altimeter Pressure
63% 30.05" Hg 1019.4 hPa